Time;durP1;ratioP1;P1;durP2;ratioP2;P2;SDS_P1;SDS_P2;PMS_P1;PMS_P2;Temp;Humidity;BMP_temperature;BMP_pressure;BME280_temperature;BME280_humidity;BME280_pressure;Samples;Min_cycle;Max_cycle;Signal;HPM_P1;HPM_P2
2021/12/31 00:01:33;;;;;;;138.90;48.38;;;;;;;2.55;100.00;99428.72;5114982;27;20070;-77
2021/12/31 00:04:01;;;;;;;133.10;44.78;;;;;;;2.54;100.00;99424.31;5115857;28;20036;-77
2021/12/31 00:06:28;;;;;;;127.97;43.63;;;;;;;2.52;100.00;99424.34;5116079;27;20547;-77
2021/12/31 00:08:55;;;;;;;145.15;50.35;;;;;;;2.53;100.00;99420.75;5115976;27;20047;-77
2021/12/31 00:11:23;;;;;;;132.57;45.80;;;;;;;2.53;100.00;99414.56;5115588;27;20439;-77
2021/12/31 00:13:51;;;;;;;116.13;43.13;;;;;;;2.53;100.00;99425.22;5115928;27;20210;-77
2021/12/31 00:16:20;;;;;;;118.47;44.55;;;;;;;2.55;100.00;99423.38;5115813;27;20044;-77
2021/12/31 00:18:47;;;;;;;121.35;49.00;;;;;;;2.56;100.00;99428.66;5115766;27;20043;-77
2021/12/31 00:21:15;;;;;;;112.90;46.00;;;;;;;2.56;100.00;99422.47;5115742;27;20051;-77
2021/12/31 00:23:44;;;;;;;111.78;39.15;;;;;;;2.59;100.00;99427.72;5115667;27;20474;-77
2021/12/31 00:26:12;;;;;;;118.32;44.47;;;;;;;2.60;100.00;99421.44;5124130;27;20043;-77
2021/12/31 00:28:40;;;;;;;109.30;42.75;;;;;;;2.60;100.00;99434.78;5135978;27;20593;-77
2021/12/31 00:31:07;;;;;;;116.82;45.05;;;;;;;2.61;100.00;99429.38;5136142;27;20119;-77
2021/12/31 00:33:36;;;;;;;116.80;45.65;;;;;;;2.60;100.00;99434.78;5135788;27;20059;-76
2021/12/31 00:36:04;;;;;;;123.55;44.65;;;;;;;2.56;100.00;99433.13;5135915;27;20485;-77
2021/12/31 00:38:31;;;;;;;131.55;47.08;;;;;;;2.57;100.00;99427.75;5135947;27;20047;-77
2021/12/31 00:40:59;;;;;;;118.30;44.75;;;;;;;2.57;100.00;99422.41;5134244;27;20496;-77
2021/12/31 00:43:26;;;;;;;124.07;44.22;;;;;;;2.62;100.00;99432.94;5135146;27;20039;-77
2021/12/31 00:45:54;;;;;;;113.00;43.42;;;;;;;2.60;100.00;99424.13;5135870;27;20070;-79
2021/12/31 00:48:22;;;;;;;114.50;43.05;;;;;;;2.61;100.00;99424.06;5135950;27;20096;-77
2021/12/31 00:50:50;;;;;;;106.82;39.95;;;;;;;2.61;100.00;99424.06;5135828;27;20043;-77
2021/12/31 00:53:18;;;;;;;123.18;42.42;;;;;;;2.58;100.00;99428.63;5135553;27;20050;-77
2021/12/31 00:55:46;;;;;;;113.00;39.55;;;;;;;2.51;100.00;99433.25;5135301;27;20039;-77
2021/12/31 00:58:13;;;;;;;104.00;38.50;;;;;;;2.53;100.00;99428.75;5135691;27;20096;-77
2021/12/31 01:00:41;;;;;;;115.97;44.85;;;;;;;2.56;100.00;99433.13;5135533;27;20047;-77
2021/12/31 01:03:08;;;;;;;117.15;42.90;;;;;;;2.63;100.00;99439.13;5135462;27;20050;-77
2021/12/31 01:05:36;;;;;;;110.07;42.78;;;;;;;2.55;100.00;99432.25;5135447;27;20676;-77
2021/12/31 01:08:05;;;;;;;123.65;42.22;;;;;;;2.57;100.00;99429.56;5135229;27;20043;-77
2021/12/31 01:10:33;;;;;;;104.20;41.35;;;;;;;2.64;100.00;99417.78;5134921;27;20039;-77
2021/12/31 01:13:07;;;;;;;111.82;42.17;;;;;;;2.61;100.00;99428.53;5135290;27;20398;-77
2021/12/31 01:15:38;;;;;;;107.38;41.88;;;;;;;2.58;100.00;99423.28;5135740;27;20072;-77
2021/12/31 01:20:56;;;;;;;101.60;38.05;;;;;;;2.67;100.00;99423.00;5124462;27;20093;-77
2021/12/31 01:23:25;;;;;;;102.15;39.75;;;;;;;2.66;100.00;99426.59;5134590;27;20488;-77
2021/12/31 01:25:53;;;;;;;116.30;42.53;;;;;;;2.74;100.00;99423.69;5135032;27;20096;-77
2021/12/31 01:28:22;;;;;;;106.75;39.88;;;;;;;2.66;100.00;99425.75;5134575;27;20039;-78
2021/12/31 01:30:49;;;;;;;111.20;41.08;;;;;;;2.66;100.00;99425.75;5134818;27;20046;-77
2021/12/31 01:33:17;;;;;;;120.38;40.65;;;;;;;2.68;100.00;99418.56;5134699;27;20059;-77
2021/12/31 01:35:44;;;;;;;113.47;41.00;;;;;;;2.69;100.00;99415.84;5136599;27;20108;-77
2021/12/31 01:38:12;;;;;;;112.72;41.50;;;;;;;2.70;100.00;99419.38;5134647;27;20054;-78
2021/12/31 01:40:41;;;;;;;131.13;43.38;;;;;;;2.73;100.00;99411.28;5134812;27;20055;-77
2021/12/31 01:43:10;;;;;;;113.10;39.33;;;;;;;2.74;100.00;99410.38;5134654;27;20047;-77
2021/12/31 01:45:43;;;;;;;125.18;43.35;;;;;;;2.75;100.00;99404.97;5134674;27;20435;-77
2021/12/31 01:48:22;;;;;;;119.13;41.30;;;;;;;2.77;100.00;99409.38;5135069;27;20112;-76
2021/12/31 01:50:50;;;;;;;109.90;38.33;;;;;;;2.81;100.00;99406.59;5135069;27;20397;-77
2021/12/31 01:53:18;;;;;;;112.20;39.20;;;;;;;2.79;100.00;99410.19;5133590;27;20047;-77
2021/12/31 01:55:47;;;;;;;121.57;39.92;;;;;;;2.81;100.00;99400.34;5134539;27;20050;-77
2021/12/31 01:58:18;;;;;;;114.82;38.75;;;;;;;2.79;100.00;99405.75;5134517;27;20417;-77
2021/12/31 02:00:46;;;;;;;103.22;36.92;;;;;;;2.84;100.00;99395.81;5135266;27;20047;-77
2021/12/31 02:03:14;;;;;;;115.47;37.95;;;;;;;2.78;100.00;99390.69;5134405;27;20047;-77
2021/12/31 02:05:41;;;;;;;114.20;38.03;;;;;;;2.82;100.00;99392.31;5134463;27;20066;-77
2021/12/31 02:08:09;;;;;;;114.88;36.50;;;;;;;2.85;100.00;99397.56;5133860;27;20043;-77
2021/12/31 02:10:36;;;;;;;118.95;36.67;;;;;;;2.82;100.00;99394.09;5134372;27;20039;-78
2021/12/31 02:13:07;;;;;;;109.95;36.05;;;;;;;2.84;100.00;99398.47;5134112;27;20047;-76
2021/12/31 02:15:35;;;;;;;105.00;34.70;;;;;;;2.81;100.00;99393.25;5134098;27;20454;-77
2021/12/31 02:18:07;;;;;;;104.03;35.08;;;;;;;2.77;100.00;99396.94;5134139;27;20062;-77
2021/12/31 02:20:40;;;;;;;92.65;34.33;;;;;;;2.79;100.00;99392.41;5135423;27;20489;-77
2021/12/31 02:23:14;;;;;;;95.80;33.28;;;;;;;2.81;100.00;99390.56;5135322;27;20054;-77
2021/12/31 02:25:42;;;;;;;87.70;32.17;;;;;;;2.79;100.00;99389.75;5134528;27;20508;-77
2021/12/31 02:28:09;;;;;;;98.20;33.22;;;;;;;2.79;100.00;99394.19;5133798;27;20397;-77
2021/12/31 02:30:37;;;;;;;93.07;32.97;;;;;;;2.74;100.00;99391.69;5134035;27;20039;-77
2021/12/31 02:33:05;;;;;;;94.47;33.03;;;;;;;2.76;100.00;99389.84;5133845;27;20528;-76
2021/12/31 02:35:33;;;;;;;88.75;31.55;;;;;;;2.78;100.00;99388.00;5134441;27;20065;-77
2021/12/31 02:38:03;;;;;;;89.57;31.40;;;;;;;2.75;100.00;99388.09;5133730;27;20507;-77
2021/12/31 02:40:31;;;;;;;87.13;31.90;;;;;;;2.86;100.00;99383.28;5135309;27;20508;-77
2021/12/31 02:42:59;;;;;;;87.47;29.95;;;;;;;2.82;100.00;99386.09;5133932;27;20051;-77
2021/12/31 02:45:30;;;;;;;89.40;31.23;;;;;;;2.82;100.00;99389.66;5133999;27;20439;-76
2021/12/31 02:48:00;;;;;;;91.38;30.48;;;;;;;2.79;100.00;99394.19;5135251;27;20485;-76
2021/12/31 02:50:33;;;;;;;83.93;29.67;;;;;;;2.83;100.00;99391.41;5135091;27;20047;-76
2021/12/31 02:53:03;;;;;;;86.82;29.55;;;;;;;2.75;100.00;99388.97;5133935;27;20134;-77
2021/12/31 02:55:31;;;;;;;84.97;29.38;;;;;;;2.74;100.00;99389.88;5133702;27;20046;-77
2021/12/31 02:57:59;;;;;;;81.22;29.05;;;;;;;2.76;100.00;99395.19;5133796;27;20107;-77
2021/12/31 03:00:27;;;;;;;79.03;28.85;;;;;;;2.76;100.00;99389.84;5133870;27;20069;-77
2021/12/31 03:02:56;;;;;;;75.38;29.08;;;;;;;2.79;100.00;99388.88;5133585;27;20062;-76
2021/12/31 03:05:23;;;;;;;82.38;28.50;;;;;;;2.84;100.00;99385.13;5115326;27;20043;-77
2021/12/31 03:07:51;;;;;;;88.90;29.40;;;;;;;2.80;100.00;99385.28;5116236;27;20520;-77
2021/12/31 03:10:20;;;;;;;73.47;29.50;;;;;;;2.78;100.00;99392.44;5116516;27;20051;-77
2021/12/31 03:12:50;;;;;;;94.35;30.15;;;;;;;2.79;100.00;99391.53;5116849;27;20044;-77
2021/12/31 03:15:17;;;;;;;92.78;30.63;;;;;;;2.72;100.00;99385.53;5117107;27;20097;-77
2021/12/31 03:17:46;;;;;;;95.78;30.48;;;;;;;2.77;100.00;99385.38;5116966;27;20411;-77
2021/12/31 03:20:14;;;;;;;99.53;31.88;;;;;;;2.75;100.00;99380.09;5116605;27;20044;-76
2021/12/31 03:22:43;;;;;;;91.65;31.77;;;;;;;2.85;100.00;99378.88;5116960;27;20497;-77
2021/12/31 03:25:11;;;;;;;101.32;32.85;;;;;;;2.79;100.00;99368.41;5116859;27;20413;-77
2021/12/31 03:27:41;;;;;;;87.85;32.83;;;;;;;2.75;100.00;99374.78;5124136;27;20050;-77
2021/12/31 03:30:11;;;;;;;95.22;31.58;;;;;;;2.69;100.00;99366.97;5137292;27;20220;-77
2021/12/31 03:32:39;;;;;;;95.47;33.25;;;;;;;2.75;100.00;99372.09;5138435;27;20096;-76
2021/12/31 03:35:07;;;;;;;88.07;32.67;;;;;;;2.75;100.00;99372.09;5136802;27;20064;-77
2021/12/31 03:37:34;;;;;;;89.22;32.13;;;;;;;2.70;100.00;99366.91;5137143;27;20051;-77
2021/12/31 03:40:02;;;;;;;91.32;31.88;;;;;;;2.81;100.00;99361.22;5137189;27;20043;-77
2021/12/31 03:42:29;;;;;;;106.07;34.10;;;;;;;2.79;100.00;99362.19;5137167;27;20047;-77
2021/12/31 03:44:58;;;;;;;95.85;31.60;;;;;;;2.76;100.00;99363.19;5137100;27;20043;-76
2021/12/31 03:47:26;;;;;;;99.45;30.45;;;;;;;2.75;100.00;99375.63;5137108;27;20043;-76
2021/12/31 03:49:53;;;;;;;92.20;30.88;;;;;;;2.68;100.00;99376.75;5136689;27;20088;-77
2021/12/31 03:52:20;;;;;;;92.60;30.95;;;;;;;2.68;100.00;99373.22;5137215;27;20047;-77
2021/12/31 03:54:48;;;;;;;96.50;29.48;;;;;;;2.66;100.00;99381.25;5136873;27;20516;-77
2021/12/31 03:57:15;;;;;;;99.97;28.63;;;;;;;2.69;100.00;99385.63;5136284;27;20047;-77
2021/12/31 03:59:43;;;;;;;86.90;30.05;;;;;;;2.67;100.00;99376.81;5136828;27;20043;-77
2021/12/31 04:02:12;;;;;;;90.07;30.52;;;;;;;2.70;100.00;99384.72;5136777;27;20047;-77
2021/12/31 04:04:39;;;;;;;95.68;29.52;;;;;;;2.63;100.00;99389.34;5136282;27;20466;-78
2021/12/31 04:07:07;;;;;;;91.43;31.25;;;;;;;2.64;100.00;99385.78;5136660;27;20050;-78
2021/12/31 04:09:34;;;;;;;92.78;30.00;;;;;;;2.62;100.00;99398.28;5136054;27;20052;-77
2021/12/31 04:12:02;;;;;;;94.05;29.63;;;;;;;2.57;100.00;99402.88;5135426;27;20042;-77
2021/12/31 04:14:29;;;;;;;86.07;30.67;;;;;;;2.57;100.00;99395.75;5136773;27;20039;-76
2021/12/31 04:16:57;;;;;;;110.63;32.75;;;;;;;2.59;100.00;99399.22;5136087;27;20550;-77
2021/12/31 04:19:26;;;;;;;92.57;29.40;;;;;;;2.61;100.00;99392.06;5119160;27;20047;-77
2021/12/31 04:21:53;;;;;;;79.55;29.13;;;;;;;2.60;100.00;99384.97;5115939;27;20044;-76
2021/12/31 04:24:30;;;;;;;85.38;29.15;;;;;;;2.64;100.00;99390.22;5115697;28;20109;-77
2021/12/31 04:26:58;;;;;;;82.07;29.20;;;;;;;2.67;100.00;99380.34;5117470;27;20043;-77
2021/12/31 04:29:25;;;;;;;102.53;29.77;;;;;;;2.72;100.00;99386.41;5136181;27;20039;-77
2021/12/31 04:31:53;;;;;;;84.85;28.90;;;;;;;2.68;100.00;99384.75;5135277;27;20447;-77
2021/12/31 04:34:20;;;;;;;89.03;28.50;;;;;;;2.69;100.00;99390.97;5135806;27;20051;-77
2021/12/31 04:36:49;;;;;;;113.75;28.35;;;;;;;2.68;100.00;99394.56;5136105;27;20043;-77
2021/12/31 04:39:17;;;;;;;89.57;30.27;;;;;;;2.61;100.00;99404.53;5135951;27;20397;-77
2021/12/31 04:41:44;;;;;;;106.13;31.73;;;;;;;2.56;100.00;99403.81;5136011;27;20043;-76
2021/12/31 04:44:12;;;;;;;88.47;32.10;;;;;;;2.57;100.00;99398.41;5135920;27;20050;-77
2021/12/31 04:46:39;;;;;;;97.75;31.90;;;;;;;2.58;100.00;99394.81;5135665;27;20159;-77
2021/12/31 04:49:07;;;;;;;102.05;32.35;;;;;;;2.63;100.00;99393.81;5135707;27;20050;-77
2021/12/31 04:51:35;;;;;;;95.28;30.92;;;;;;;2.59;100.00;99395.72;5135703;27;20051;-78
2021/12/31 04:54:04;;;;;;;89.20;29.40;;;;;;;2.59;100.00;99390.38;5135685;27;20051;-77
2021/12/31 04:56:31;;;;;;;89.72;30.27;;;;;;;2.59;100.00;99391.22;5135634;27;20477;-77
2021/12/31 04:58:59;;;;;;;97.65;29.38;;;;;;;2.69;100.00;99390.97;5135453;27;20047;-77
2021/12/31 05:01:26;;;;;;;87.30;29.05;;;;;;;2.68;100.00;99391.91;5135227;27;20043;-77
2021/12/31 05:03:54;;;;;;;63.90;25.65;;;;;;;2.69;100.00;99381.16;5134902;27;20043;-77
2021/12/31 05:06:21;;;;;;;63.42;25.42;;;;;;;2.73;100.00;99389.94;5135528;27;20065;-77
2021/12/31 05:08:49;;;;;;;59.95;23.25;;;;;;;2.83;100.00;99395.84;5135423;27;20040;-76
2021/12/31 05:11:17;;;;;;;62.83;25.27;;;;;;;2.77;100.00;99398.72;5135423;27;20382;-77
2021/12/31 05:13:46;;;;;;;68.70;25.38;;;;;;;2.72;100.00;99405.06;5134918;27;20481;-76
2021/12/31 05:16:13;;;;;;;67.20;21.85;;;;;;;2.75;100.00;99396.09;5134921;27;20050;-78
2021/12/31 05:18:41;;;;;;;65.30;23.92;;;;;;;2.78;100.00;99392.44;5135299;27;20061;-76
2021/12/31 05:21:08;;;;;;;60.05;22.80;;;;;;;2.83;100.00;99388.72;5135241;27;20056;-77
2021/12/31 05:23:36;;;;;;;82.38;26.50;;;;;;;2.84;100.00;99397.59;5135090;27;20043;-77
2021/12/31 05:26:03;;;;;;;81.50;28.25;;;;;;;2.85;100.00;99402.00;5135009;27;20047;-77
2021/12/31 05:28:33;;;;;;;65.25;27.90;;;;;;;2.87;100.00;99402.84;5134057;27;20039;-77
2021/12/31 05:31:01;;;;;;;86.65;28.95;;;;;;;2.86;100.00;99409.97;5134498;27;20500;-77
2021/12/31 05:33:28;;;;;;;88.40;30.75;;;;;;;2.87;100.00;99406.38;5134434;27;20508;-77
2021/12/31 05:35:59;;;;;;;68.55;32.03;;;;;;;2.85;100.00;99408.22;5136097;27;20043;-76
2021/12/31 05:38:27;;;;;;;69.43;33.17;;;;;;;2.86;100.00;99403.78;5136501;27;20096;-77
2021/12/31 05:40:54;;;;;;;69.53;28.70;;;;;;;2.88;100.00;99410.78;5134787;27;20055;-77
2021/12/31 05:43:22;;;;;;;70.38;25.85;;;;;;;2.88;100.00;99416.13;5134807;27;20435;-76
2021/12/31 05:45:51;;;;;;;78.90;23.77;;;;;;;2.90;100.00;99418.78;5134443;27;20047;-76
2021/12/31 05:48:18;;;;;;;84.93;23.85;;;;;;;2.88;100.00;99420.63;5134680;27;20054;-77
2021/12/31 05:50:46;;;;;;;67.55;21.25;;;;;;;2.83;100.00;99423.41;5134677;27;20038;-77
2021/12/31 05:53:13;;;;;;;70.93;20.85;;;;;;;2.88;100.00;99424.13;5134572;27;20043;-77
2021/12/31 05:55:41;;;;;;;69.65;18.58;;;;;;;2.87;100.00;99422.38;5134777;27;20065;-76
2021/12/31 05:58:08;;;;;;;102.55;19.80;;;;;;;2.87;100.00;99422.38;5134621;27;20043;-77
2021/12/31 06:00:36;;;;;;;82.93;17.58;;;;;;;2.93;100.00;99423.13;5134226;27;20278;-78
2021/12/31 06:03:05;;;;;;;66.78;18.38;;;;;;;2.96;100.00;99431.91;5134255;27;20043;-76
2021/12/31 06:05:32;;;;;;;62.70;16.85;;;;;;;2.96;100.00;99444.38;5134494;27;20065;-77
2021/12/31 06:08:00;;;;;;;59.80;15.52;;;;;;;2.99;100.00;99441.59;5134386;27;20043;-77
2021/12/31 06:10:27;;;;;;;58.85;15.98;;;;;;;2.99;100.00;99447.81;5134475;27;20039;-78
2021/12/31 06:12:58;;;;;;;53.40;16.33;;;;;;;3.00;100.00;99448.69;5134144;27;20050;-77
2021/12/31 06:15:28;;;;;;;50.15;14.82;;;;;;;3.00;100.00;99440.66;5134988;27;20039;-75
2021/12/31 06:17:55;;;;;;;87.28;15.65;;;;;;;3.04;100.00;99432.53;5134177;27;20045;-79
2021/12/31 06:20:28;;;;;;;67.70;17.45;;;;;;;2.99;100.00;99436.25;5133901;27;20043;-79
2021/12/31 06:22:57;;;;;;;62.33;16.27;;;;;;;2.99;100.00;99436.25;5133115;27;20049;-77
2021/12/31 06:25:25;;;;;;;50.88;17.08;;;;;;;3.03;100.00;99430.78;5133181;27;20054;-77
2021/12/31 06:27:53;;;;;;;49.80;16.77;;;;;;;3.07;100.00;99428.91;5133469;27;20066;-77
2021/12/31 06:30:21;;;;;;;86.65;30.63;;;;;;;3.12;100.00;99429.63;5133936;27;20039;-77
2021/12/31 06:32:49;;;;;;;95.82;35.65;;;;;;;3.16;100.00;99431.28;5133841;27;20427;-77
2021/12/31 06:35:16;;;;;;;84.18;35.28;;;;;;;3.14;100.00;99441.13;5134216;27;20051;-77
2021/12/31 06:37:47;;;;;;;72.80;33.55;;;;;;;3.17;100.00;99433.00;5134038;27;20519;-76
2021/12/31 06:40:15;;;;;;;59.15;25.85;;;;;;;3.17;100.00;99432.13;5136688;27;20456;-76
2021/12/31 06:42:43;;;;;;;55.95;19.38;;;;;;;3.19;100.00;99433.84;5137898;27;20043;-76
2021/12/31 06:45:11;;;;;;;50.60;19.17;;;;;;;3.19;100.00;99436.50;5138410;27;20043;-76
2021/12/31 06:47:38;;;;;;;58.35;19.30;;;;;;;3.22;100.00;99434.66;5138271;27;20456;-76
2021/12/31 06:50:06;;;;;;;69.43;21.27;;;;;;;3.20;100.00;99437.38;5138064;27;20062;-75
2021/12/31 06:52:38;;;;;;;74.63;22.40;;;;;;;3.19;100.00;99439.19;5138111;27;20043;-74
2021/12/31 06:55:08;;;;;;;63.08;21.05;;;;;;;3.22;100.00;99448.84;5138150;27;20061;-77
2021/12/31 06:57:36;;;;;;;49.60;19.52;;;;;;;3.18;100.00;99440.09;5137576;27;20055;-75
2021/12/31 07:00:05;;;;;;;52.17;18.27;;;;;;;3.23;100.00;99436.41;5138090;27;20507;-75
2021/12/31 07:02:32;;;;;;;49.05;17.70;;;;;;;3.24;100.00;99451.50;5138025;27;20553;-75
2021/12/31 07:05:00;;;;;;;49.20;15.73;;;;;;;3.26;100.00;99441.63;5137880;27;20055;-75
2021/12/31 07:07:27;;;;;;;43.72;15.10;;;;;;;3.31;100.00;99447.69;5137949;27;20043;-74
2021/12/31 07:09:55;;;;;;;43.88;16.20;;;;;;;3.30;100.00;99436.16;5137832;27;20047;-75
2021/12/31 07:12:24;;;;;;;42.40;15.48;;;;;;;3.39;100.00;99437.63;5137210;27;20107;-74
2021/12/31 07:14:51;;;;;;;55.65;20.15;;;;;;;3.41;100.00;99430.44;5133308;27;20040;-74
2021/12/31 07:17:19;;;;;;;83.95;36.08;;;;;;;3.42;100.00;99431.34;5116999;27;20048;-74
2021/12/31 07:19:46;;;;;;;56.47;19.45;;;;;;;3.46;100.00;99423.16;5116561;27;20047;-74
2021/12/31 07:22:14;;;;;;;45.58;15.52;;;;;;;3.49;100.00;99422.19;5116709;28;20410;-74
2021/12/31 07:24:41;;;;;;;63.58;14.35;;;;;;;3.52;100.00;99431.91;5116872;27;20039;-75
2021/12/31 07:27:09;;;;;;;55.35;17.63;;;;;;;3.51;100.00;99433.69;5119777;27;20385;-75
2021/12/31 07:29:38;;;;;;;61.33;18.98;;;;;;;3.55;100.00;99432.66;5137345;27;20050;-76
2021/12/31 07:32:06;;;;;;;59.03;19.02;;;;;;;3.61;100.00;99436.91;5137307;27;20047;-75
2021/12/31 07:34:33;;;;;;;51.67;16.70;;;;;;;3.70;100.00;99439.28;5137163;27;20062;-76
2021/12/31 07:37:01;;;;;;;41.28;14.65;;;;;;;3.76;100.00;99435.53;5137260;27;20046;-76
2021/12/31 07:39:32;;;;;;;45.75;13.80;;;;;;;3.83;100.00;99441.50;5137198;27;20050;-75
2021/12/31 07:41:59;;;;;;;41.67;13.82;;;;;;;3.84;100.00;99436.13;5137914;27;20112;-75
2021/12/31 07:44:26;;;;;;;45.42;13.98;;;;;;;3.80;100.00;99437.16;5137152;27;20043;-75
2021/12/31 07:46:55;;;;;;;48.97;14.75;;;;;;;3.81;100.00;99435.34;5137179;27;20386;-75
2021/12/31 07:49:23;;;;;;;40.22;15.20;;;;;;;3.82;100.00;99446.00;5135526;27;20042;-75
2021/12/31 07:51:50;;;;;;;49.60;17.05;;;;;;;3.82;100.00;99440.66;5123604;27;20050;-77
2021/12/31 07:54:18;;;;;;;75.45;19.95;;;;;;;3.83;100.00;99449.53;5124753;27;20096;-77
2021/12/31 07:56:45;;;;;;;232.00;34.95;;;;;;;3.86;100.00;99452.09;5125806;27;20110;-75
2021/12/31 07:59:13;;;;;;;778.70;104.55;;;;;;;3.85;100.00;99450.34;5124854;27;20040;-77
2021/12/31 08:01:41;;;;;;;1114.43;162.65;;;;;;;3.82;100.00;99456.69;5124154;27;20069;-76
2021/12/31 08:04:09;;;;;;;1009.83;154.82;;;;;;;3.84;100.00;99449.47;5124063;27;20402;-76
2021/12/31 08:06:37;;;;;;;741.15;127.70;;;;;;;3.88;100.00;99448.44;5124658;27;20039;-77
2021/12/31 08:09:04;;;;;;;380.38;64.10;;;;;;;3.88;100.00;99436.91;5125754;27;20035;-76
2021/12/31 08:11:32;;;;;;;136.55;38.20;;;;;;;3.93;100.00;99437.59;5124171;27;20444;-76
2021/12/31 08:13:59;;;;;;;117.68;43.80;;;;;;;3.94;100.00;99441.13;5124059;27;20046;-76
2021/12/31 08:16:27;;;;;;;142.15;45.35;;;;;;;3.89;100.00;99436.84;5125899;27;20481;-76
2021/12/31 08:18:55;;;;;;;148.48;55.97;;;;;;;3.91;100.00;99442.13;5124697;27;20529;-76
2021/12/31 08:21:23;;;;;;;132.10;40.78;;;;;;;3.82;100.00;99445.09;5123559;27;20047;-76
2021/12/31 08:23:51;;;;;;;130.05;32.30;;;;;;;3.86;100.00;99444.06;5123648;27;20478;-75
2021/12/31 08:26:19;;;;;;;91.75;33.30;;;;;;;3.89;100.00;99444.84;5124039;27;20074;-75
2021/12/31 08:28:46;;;;;;;80.45;26.75;;;;;;;3.84;100.00;99445.94;5127851;27;20051;-76
2021/12/31 08:31:14;;;;;;;82.80;28.75;;;;;;;3.83;100.00;99446.84;5124330;27;20036;-76
2021/12/31 08:33:41;;;;;;;105.03;31.38;;;;;;;3.84;100.00;99445.94;5120988;27;20055;-76
2021/12/31 08:36:09;;;;;;;100.72;35.05;;;;;;;3.87;100.00;99443.16;5125313;27;20039;-77
2021/12/31 08:38:38;;;;;;;73.68;27.60;;;;;;;3.87;100.00;99448.47;5124556;27;20043;-76
2021/12/31 08:41:06;;;;;;;71.05;26.23;;;;;;;3.88;100.00;99445.78;5123640;27;20485;-76
2021/12/31 08:43:33;;;;;;;67.63;26.50;;;;;;;3.88;100.00;99453.78;5123734;27;20043;-76
2021/12/31 08:46:01;;;;;;;63.25;26.02;;;;;;;3.89;100.00;99455.53;5124353;27;20039;-76
2021/12/31 08:48:28;;;;;;;68.63;28.48;;;;;;;3.89;100.00;99452.88;5126072;27;20043;-77
2021/12/31 08:50:56;;;;;;;69.38;31.23;;;;;;;3.89;100.00;99452.00;5124901;27;20483;-75
2021/12/31 08:53:23;;;;;;;58.08;24.85;;;;;;;3.85;100.00;99450.34;5125007;27;20047;-78
2021/12/31 08:55:52;;;;;;;58.40;21.85;;;;;;;3.89;100.00;99458.22;5123309;27;20047;-74
2021/12/31 08:58:20;;;;;;;63.67;24.38;;;;;;;3.96;100.00;99453.53;5112172;27;20070;-73
2021/12/31 09:00:47;;;;;;;84.70;26.27;;;;;;;3.97;100.00;99455.28;5121776;27;20123;-74
2021/12/31 09:03:15;;;;;;;81.50;30.88;;;;;;;3.96;100.00;99442.84;5109113;28;20048;-75
2021/12/31 09:05:42;;;;;;;70.47;26.27;;;;;;;3.95;100.00;99442.88;5111371;27;20521;-74
2021/12/31 09:08:10;;;;;;;65.22;27.38;;;;;;;4.03;100.00;99443.47;5111091;27;20487;-73
2021/12/31 09:10:37;;;;;;;50.08;22.20;;;;;;;4.02;100.00;99436.38;5111299;27;20135;-74
2021/12/31 09:13:06;;;;;;;62.97;25.70;;;;;;;4.03;100.00;99443.47;5124854;27;20039;-75
2021/12/31 09:15:34;;;;;;;68.32;25.85;;;;;;;4.04;100.00;99438.09;5131199;27;20070;-75
2021/12/31 09:18:01;;;;;;;55.40;22.77;;;;;;;4.13;100.00;99436.00;5131726;27;20047;-74
2021/12/31 09:20:29;;;;;;;63.30;25.33;;;;;;;4.18;100.00;99431.34;5131359;27;20382;-75
2021/12/31 09:22:57;;;;;;;56.83;21.45;;;;;;;4.20;100.00;99427.72;5130867;27;20047;-77
2021/12/31 09:25:25;;;;;;;56.40;22.02;;;;;;;4.24;100.00;99417.75;5131229;27;20054;-74
2021/12/31 09:27:52;;;;;;;64.97;21.02;;;;;;;4.25;100.00;99418.66;5131296;27;20054;-75
2021/12/31 09:30:21;;;;;;;58.25;20.33;;;;;;;4.23;100.00;99416.03;5131281;27;20070;-74
2021/12/31 09:32:49;;;;;;;72.10;27.42;;;;;;;4.25;100.00;99413.31;5131261;27;20047;-77
2021/12/31 09:35:16;;;;;;;55.45;20.70;;;;;;;4.27;100.00;99409.63;5131248;27;20051;-77
2021/12/31 09:37:44;;;;;;;50.47;20.58;;;;;;;4.33;100.00;99409.44;5134901;27;20043;-77
2021/12/31 09:40:15;;;;;;;63.60;22.20;;;;;;;4.33;100.00;99409.44;5131215;27;20063;-76
2021/12/31 09:42:47;;;;;;;66.72;25.60;;;;;;;4.40;100.00;99406.50;5132155;27;20049;-78
2021/12/31 09:45:16;;;;;;;87.72;42.92;;;;;;;4.40;100.00;99412.72;5134130;27;20769;-76
2021/12/31 09:47:45;;;;;;;79.70;33.05;;;;;;;4.38;100.00;99409.22;5125804;27;20091;-76
2021/12/31 09:50:13;;;;;;;64.72;28.00;;;;;;;4.43;100.00;99404.56;5113620;27;20047;-76
2021/12/31 09:52:41;;;;;;;49.70;20.25;;;;;;;4.47;100.00;99405.34;5113786;27;20043;-76
2021/12/31 09:55:10;;;;;;;52.15;19.30;;;;;;;4.48;100.00;99407.94;5114397;27;20537;-78
2021/12/31 09:57:37;;;;;;;86.97;34.50;;;;;;;4.45;100.00;99396.50;5114090;27;20066;-77
2021/12/31 10:00:06;;;;;;;77.18;28.65;;;;;;;4.48;100.00;99396.38;5114091;27;20486;-76
2021/12/31 10:02:34;;;;;;;74.93;26.85;;;;;;;4.47;100.00;99389.28;5112726;28;20047;-75
2021/12/31 10:05:04;;;;;;;69.40;25.52;;;;;;;4.49;100.00;99388.31;5113931;27;20410;-75
2021/12/31 10:07:33;;;;;;;72.55;24.85;;;;;;;4.52;100.00;99386.47;5114044;27;20516;-76
2021/12/31 10:10:12;;;;;;;68.45;23.10;;;;;;;4.52;100.00;99392.66;5113725;28;20039;-78
2021/12/31 10:12:51;;;;;;;73.63;27.80;;;;;;;4.56;100.00;99383.59;5115097;27;20044;-76
2021/12/31 10:15:20;;;;;;;81.10;29.15;;;;;;;4.60;100.00;99379.84;5113382;27;20052;-76
2021/12/31 10:17:48;;;;;;;67.72;22.90;;;;;;;4.60;100.00;99379.84;5119865;27;20103;-75
2021/12/31 10:20:17;;;;;;;67.78;21.20;;;;;;;4.56;100.00;99378.22;5133948;27;20047;-75
2021/12/31 10:22:46;;;;;;;65.85;22.10;;;;;;;4.55;100.00;99379.16;5134167;27;20485;-75
2021/12/31 10:25:20;;;;;;;60.17;20.05;;;;;;;4.55;100.00;99376.50;5133568;27;20047;-75
2021/12/31 10:27:50;;;;;;;67.18;19.52;;;;;;;4.57;100.00;99379.97;5133714;27;20051;-76
2021/12/31 10:30:23;;;;;;;54.30;18.38;;;;;;;4.59;100.00;99375.44;5133502;27;20047;-75
2021/12/31 10:32:51;;;;;;;58.65;19.13;;;;;;;4.61;100.00;99375.41;5134725;27;20043;-78
2021/12/31 10:35:22;;;;;;;70.43;23.42;;;;;;;4.61;100.00;99370.91;5133325;27;20055;-78
2021/12/31 10:37:57;;;;;;;65.75;25.20;;;;;;;4.63;100.00;99369.03;5134170;27;20043;-76
2021/12/31 10:40:30;;;;;;;65.22;23.70;;;;;;;4.67;100.00;99371.59;5134328;27;20046;-76
2021/12/31 10:43:11;;;;;;;64.43;23.33;;;;;;;4.67;100.00;99368.91;5134108;27;20050;-76
2021/12/31 10:45:39;;;;;;;56.50;19.23;;;;;;;4.66;100.00;99367.16;5134633;27;20062;-76
2021/12/31 10:48:08;;;;;;;60.55;22.55;;;;;;;4.67;100.00;99376.94;5134402;27;20419;-75
2021/12/31 10:50:38;;;;;;;68.78;28.70;;;;;;;4.68;100.00;99376.00;5133651;27;20035;-76
2021/12/31 10:53:11;;;;;;;69.32;27.73;;;;;;;4.70;100.00;99368.81;5134433;27;20047;-78
2021/12/31 10:55:44;;;;;;;67.53;25.70;;;;;;;4.71;100.00;99359.84;5134376;27;20047;-76
2021/12/31 10:58:14;;;;;;;63.38;25.20;;;;;;;4.77;100.00;99364.97;5134387;27;20097;-78
2021/12/31 11:00:43;;;;;;;70.10;26.67;;;;;;;4.76;100.00;99361.41;5134197;27;20039;-76
2021/12/31 11:03:12;;;;;;;61.17;22.50;;;;;;;4.77;100.00;99354.25;5133505;27;20505;-76
2021/12/31 11:05:42;;;;;;;61.85;23.42;;;;;;;4.83;100.00;99350.44;5134038;27;20043;-77
2021/12/31 11:08:13;;;;;;;56.13;22.05;;;;;;;4.80;100.00;99332.72;5134018;27;20047;-76
2021/12/31 11:10:41;;;;;;;55.10;22.00;;;;;;;4.83;100.00;99345.97;5134708;27;20362;-78
2021/12/31 11:13:12;;;;;;;55.53;20.50;;;;;;;4.82;100.00;99330.84;5131608;27;20043;-77
2021/12/31 11:15:42;;;;;;;58.03;24.40;;;;;;;4.84;100.00;99331.66;5132506;27;20054;-78
2021/12/31 11:18:11;;;;;;;51.28;19.95;;;;;;;4.81;100.00;99325.53;5130014;27;20051;-78
2021/12/31 11:20:39;;;;;;;58.67;20.17;;;;;;;4.87;100.00;99330.66;5130052;27;20039;-77
2021/12/31 11:23:08;;;;;;;52.30;18.15;;;;;;;4.89;100.00;99335.00;5130256;27;20409;-79